sensor_id;sensor_type;location;lat;lon;timestamp;pressure;altitude;pressure_sealevel;temperature;humidity
40285;BME280;25997;50.214;19.354;2022-09-23T00:01:11;98280.78;;;10.09;56.87
40285;BME280;25997;50.214;19.354;2022-09-23T00:04:16;98280.09;;;10.16;56.68
40285;BME280;25997;50.214;19.354;2022-09-23T00:07:18;98275.00;;;10.20;56.53
40285;BME280;25997;50.214;19.354;2022-09-23T00:10:21;98277.88;;;10.28;56.59
40285;BME280;25997;50.214;19.354;2022-09-23T00:13:25;98270.25;;;10.35;56.30
40285;BME280;25997;50.214;19.354;2022-09-23T00:16:28;98271.25;;;10.40;56.21
40285;BME280;25997;50.214;19.354;2022-09-23T00:19:33;98269.56;;;10.42;56.30
40285;BME280;25997;50.214;19.354;2022-09-23T00:22:38;98259.94;;;10.41;56.03
40285;BME280;25997;50.214;19.354;2022-09-23T00:25:41;98263.59;;;10.46;56.18
40285;BME280;25997;50.214;19.354;2022-09-23T00:28:44;98265.31;;;10.46;56.09
40285;BME280;25997;50.214;19.354;2022-09-23T00:31:46;98264.47;;;10.47;56.17
40285;BME280;25997;50.214;19.354;2022-09-23T00:34:51;98266.28;;;10.49;56.17
40285;BME280;25997;50.214;19.354;2022-09-23T00:37:53;98261.31;;;10.58;56.12
40285;BME280;25997;50.214;19.354;2022-09-23T00:40:56;98261.44;;;10.63;55.88
40285;BME280;25997;50.214;19.354;2022-09-23T00:44:00;98257.13;;;10.65;56.02
40285;BME280;25997;50.214;19.354;2022-09-23T00:47:03;98248.28;;;10.61;55.84
40285;BME280;25997;50.214;19.354;2022-09-23T00:50:11;98246.56;;;10.62;56.18
40285;BME280;25997;50.214;19.354;2022-09-23T00:53:16;98246.50;;;10.60;56.01
40285;BME280;25997;50.214;19.354;2022-09-23T00:56:23;98240.16;;;10.54;56.14
40285;BME280;25997;50.214;19.354;2022-09-23T00:59:26;98247.00;;;10.49;55.98
40285;BME280;25997;50.214;19.354;2022-09-23T01:02:29;98247.75;;;10.43;56.25
40285;BME280;25997;50.214;19.354;2022-09-23T01:05:34;98245.28;;;10.49;56.34
40285;BME280;25997;50.214;19.354;2022-09-23T01:08:37;98238.56;;;10.59;56.16
40285;BME280;25997;50.214;19.354;2022-09-23T01:11:44;98252.66;;;10.62;55.88
40285;BME280;25997;50.214;19.354;2022-09-23T01:14:55;98239.50;;;10.61;55.89
40285;BME280;25997;50.214;19.354;2022-09-23T01:18:08;98243.72;;;10.56;55.94
40285;BME280;25997;50.214;19.354;2022-09-23T01:21:29;98252.53;;;10.58;55.90
40285;BME280;25997;50.214;19.354;2022-09-23T01:24:47;98243.06;;;10.63;55.92
40285;BME280;25997;50.214;19.354;2022-09-23T01:28:10;98246.81;;;10.71;55.63
40285;BME280;25997;50.214;19.354;2022-09-23T01:31:23;98237.13;;;10.68;55.63
40285;BME280;25997;50.214;19.354;2022-09-23T01:34:34;98245.00;;;10.68;55.57
40285;BME280;25997;50.214;19.354;2022-09-23T01:37:42;98235.22;;;10.64;55.68
40285;BME280;25997;50.214;19.354;2022-09-23T01:40:51;98241.44;;;10.66;55.95
40285;BME280;25997;50.214;19.354;2022-09-23T01:44:03;98238.88;;;10.69;55.86
40285;BME280;25997;50.214;19.354;2022-09-23T01:47:10;98224.97;;;10.73;55.86
40285;BME280;25997;50.214;19.354;2022-09-23T01:50:17;98229.31;;;10.71;55.49
40285;BME280;25997;50.214;19.354;2022-09-23T01:53:42;98231.84;;;10.68;55.73
40285;BME280;25997;50.214;19.354;2022-09-23T01:56:48;98231.63;;;10.61;55.79
40285;BME280;25997;50.214;19.354;2022-09-23T01:59:55;98231.50;;;10.56;55.86
40285;BME280;25997;50.214;19.354;2022-09-23T02:03:05;98225.06;;;10.47;55.95
40285;BME280;25997;50.214;19.354;2022-09-23T02:06:13;98231.59;;;10.31;56.30
40285;BME280;25997;50.214;19.354;2022-09-23T02:09:21;98228.66;;;10.21;56.37
40285;BME280;25997;50.214;19.354;2022-09-23T02:12:25;98237.44;;;10.21;56.50
40285;BME280;25997;50.214;19.354;2022-09-23T02:15:32;98238.41;;;10.25;56.36
40285;BME280;25997;50.214;19.354;2022-09-23T02:18:42;98229.75;;;10.27;56.16
40285;BME280;25997;50.214;19.354;2022-09-23T02:21:51;98233.09;;;10.22;56.20
40285;BME280;25997;50.214;19.354;2022-09-23T02:24:57;98232.88;;;10.16;56.14
40285;BME280;25997;50.214;19.354;2022-09-23T02:28:04;98230.31;;;10.17;56.04
40285;BME280;25997;50.214;19.354;2022-09-23T02:31:12;98232.09;;;10.18;56.11
40285;BME280;25997;50.214;19.354;2022-09-23T02:34:26;98229.44;;;10.17;56.12
40285;BME280;25997;50.214;19.354;2022-09-23T02:37:36;98233.88;;;10.19;56.09
40285;BME280;25997;50.214;19.354;2022-09-23T02:40:46;98232.22;;;10.23;56.23
40285;BME280;25997;50.214;19.354;2022-09-23T02:43:59;98231.44;;;10.25;56.10
40285;BME280;25997;50.214;19.354;2022-09-23T02:47:03;98226.94;;;10.21;56.17
40285;BME280;25997;50.214;19.354;2022-09-23T02:50:08;98227.63;;;10.16;56.05
40285;BME280;25997;50.214;19.354;2022-09-23T02:53:10;98230.97;;;10.10;56.19
40285;BME280;25997;50.214;19.354;2022-09-23T02:56:14;98233.50;;;10.07;56.17
40285;BME280;25997;50.214;19.354;2022-09-23T02:59:19;98235.19;;;10.05;56.08
40285;BME280;25997;50.214;19.354;2022-09-23T03:02:37;98227.28;;;10.04;56.13
40285;BME280;25997;50.214;19.354;2022-09-23T03:05:51;98230.88;;;10.07;56.11
40285;BME280;25997;50.214;19.354;2022-09-23T03:08:57;98229.47;;;10.18;55.97
40285;BME280;25997;50.214;19.354;2022-09-23T03:12:08;98228.31;;;10.09;56.01
40285;BME280;25997;50.214;19.354;2022-09-23T03:15:21;98228.31;;;10.09;56.63
40285;BME280;25997;50.214;19.354;2022-09-23T03:18:31;98222.81;;;10.02;56.59
40285;BME280;25997;50.214;19.354;2022-09-23T03:21:45;98224.00;;;10.11;56.47
40285;BME280;25997;50.214;19.354;2022-09-23T03:24:51;98224.94;;;10.13;56.39
40285;BME280;25997;50.214;19.354;2022-09-23T03:27:57;98222.38;;;10.16;56.40
40285;BME280;25997;50.214;19.354;2022-09-23T03:31:01;98222.50;;;10.19;56.36
40285;BME280;25997;50.214;19.354;2022-09-23T03:34:10;98229.56;;;10.21;56.32
40285;BME280;25997;50.214;19.354;2022-09-23T03:37:19;98226.00;;;10.19;56.46
40285;BME280;25997;50.214;19.354;2022-09-23T03:40:26;98231.31;;;10.22;56.40
40285;BME280;25997;50.214;19.354;2022-09-23T03:43:31;98223.53;;;10.24;56.38
40285;BME280;25997;50.214;19.354;2022-09-23T03:46:34;98218.13;;;10.19;56.01
40285;BME280;25997;50.214;19.354;2022-09-23T03:49:37;98208.41;;;10.15;55.55
40285;BME280;25997;50.214;19.354;2022-09-23T03:52:42;98213.53;;;10.12;55.83
40285;BME280;25997;50.214;19.354;2022-09-23T03:55:46;98222.25;;;10.11;55.75
40285;BME280;25997;50.214;19.354;2022-09-23T03:58:49;98221.25;;;10.06;56.25
40285;BME280;25997;50.214;19.354;2022-09-23T04:01:52;98223.13;;;10.12;56.21
40285;BME280;25997;50.214;19.354;2022-09-23T04:04:55;98214.38;;;10.11;56.19
40285;BME280;25997;50.214;19.354;2022-09-23T04:07:59;98217.00;;;10.11;55.95
40285;BME280;25997;50.214;19.354;2022-09-23T04:11:03;98214.25;;;10.07;55.96
40285;BME280;25997;50.214;19.354;2022-09-23T04:14:06;98206.94;;;9.98;56.05
40285;BME280;25997;50.214;19.354;2022-09-23T04:17:09;98221.66;;;9.93;55.84
40285;BME280;25997;50.214;19.354;2022-09-23T04:20:11;98224.31;;;9.94;55.96
40285;BME280;25997;50.214;19.354;2022-09-23T04:23:15;98223.53;;;9.97;55.85
40285;BME280;25997;50.214;19.354;2022-09-23T04:26:18;98218.28;;;9.97;55.53
40285;BME280;25997;50.214;19.354;2022-09-23T04:29:21;98223.34;;;9.91;55.59
40285;BME280;25997;50.214;19.354;2022-09-23T04:32:24;98223.13;;;9.85;55.71
40285;BME280;25997;50.214;19.354;2022-09-23T04:35:27;98234.28;;;9.78;55.57
40285;BME280;25997;50.214;19.354;2022-09-23T04:38:31;98223.59;;;9.72;55.71
40285;BME280;25997;50.214;19.354;2022-09-23T04:41:34;98219.94;;;9.67;55.95
40285;BME280;25997;50.214;19.354;2022-09-23T04:44:36;98224.97;;;9.61;55.99
40285;BME280;25997;50.214;19.354;2022-09-23T04:47:40;98223.22;;;9.60;55.86
40285;BME280;25997;50.214;19.354;2022-09-23T04:50:43;98224.00;;;9.57;55.81
40285;BME280;25997;50.214;19.354;2022-09-23T04:53:48;98225.69;;;9.55;55.85
40285;BME280;25997;50.214;19.354;2022-09-23T04:56:51;98226.38;;;9.50;55.68
40285;BME280;25997;50.214;19.354;2022-09-23T04:59:54;98222.53;;;9.40;55.65
40285;BME280;25997;50.214;19.354;2022-09-23T05:02:57;98225.84;;;9.35;55.61
40285;BME280;25997;50.214;19.354;2022-09-23T05:06:00;98225.66;;;9.28;55.60
40285;BME280;25997;50.214;19.354;2022-09-23T05:09:06;98222.03;;;9.25;55.72
40285;BME280;25997;50.214;19.354;2022-09-23T05:12:09;98226.22;;;9.20;55.57
40285;BME280;25997;50.214;19.354;2022-09-23T05:15:12;98227.81;;;9.15;55.62
40285;BME280;25997;50.214;19.354;2022-09-23T05:18:16;98230.44;;;9.15;55.78
40285;BME280;25997;50.214;19.354;2022-09-23T05:21:19;98231.44;;;9.20;55.91
40285;BME280;25997;50.214;19.354;2022-09-23T05:24:24;98232.47;;;9.23;55.85
40285;BME280;25997;50.214;19.354;2022-09-23T05:27:27;98231.69;;;9.26;55.71
40285;BME280;25997;50.214;19.354;2022-09-23T05:30:30;98231.91;;;9.34;55.74
40285;BME280;25997;50.214;19.354;2022-09-23T05:33:33;98230.25;;;9.36;55.81
40285;BME280;25997;50.214;19.354;2022-09-23T05:36:36;98229.69;;;9.44;56.14
40285;BME280;25997;50.214;19.354;2022-09-23T05:39:40;98240.59;;;9.58;55.80
40285;BME280;25997;50.214;19.354;2022-09-23T05:42:42;98243.47;;;9.65;55.75
40285;BME280;25997;50.214;19.354;2022-09-23T05:45:45;98244.56;;;9.72;55.60
40285;BME280;25997;50.214;19.354;2022-09-23T05:48:48;98245.81;;;9.83;55.63
40285;BME280;25997;50.214;19.354;2022-09-23T05:51:51;98243.28;;;9.86;55.52
40285;BME280;25997;50.214;19.354;2022-09-23T05:54:55;98246.81;;;9.86;55.47
40285;BME280;25997;50.214;19.354;2022-09-23T05:57:58;98251.63;;;10.01;55.78
40285;BME280;25997;50.214;19.354;2022-09-23T06:01:00;98245.03;;;10.12;55.43
40285;BME280;25997;50.214;19.354;2022-09-23T06:04:11;98247.00;;;10.19;54.66
40285;BME280;25997;50.214;19.354;2022-09-23T06:07:14;98247.50;;;10.08;55.05
40285;BME280;25997;50.214;19.354;2022-09-23T06:10:18;98248.19;;;10.02;55.03
40285;BME280;25997;50.214;19.354;2022-09-23T06:13:21;98248.88;;;9.96;55.21
40285;BME280;25997;50.214;19.354;2022-09-23T06:16:23;98246.41;;;10.01;55.12
40285;BME280;25997;50.214;19.354;2022-09-23T06:19:26;98249.91;;;10.01;55.38
40285;BME280;25997;50.214;19.354;2022-09-23T06:22:29;98250.28;;;10.12;55.60
40285;BME280;25997;50.214;19.354;2022-09-23T06:25:33;98256.09;;;10.30;55.62
40285;BME280;25997;50.214;19.354;2022-09-23T06:28:40;98257.44;;;10.46;55.30
40285;BME280;25997;50.214;19.354;2022-09-23T06:31:43;98250.84;;;10.60;55.33
40285;BME280;25997;50.214;19.354;2022-09-23T06:34:45;98270.13;;;10.60;54.71
40285;BME280;25997;50.214;19.354;2022-09-23T06:37:48;98258.28;;;10.45;54.84
40285;BME280;25997;50.214;19.354;2022-09-23T06:40:53;98260.97;;;10.46;55.26
40285;BME280;25997;50.214;19.354;2022-09-23T06:43:56;98268.91;;;10.49;54.88
40285;BME280;25997;50.214;19.354;2022-09-23T06:46:59;98255.66;;;10.17;55.23
40285;BME280;25997;50.214;19.354;2022-09-23T06:50:01;98267.75;;;10.12;55.65
40285;BME280;25997;50.214;19.354;2022-09-23T06:53:04;98267.88;;;10.16;55.54
40285;BME280;25997;50.214;19.354;2022-09-23T06:56:09;98258.84;;;10.35;55.97
40285;BME280;25997;50.214;19.354;2022-09-23T06:59:12;98266.78;;;10.66;55.98
40285;BME280;25997;50.214;19.354;2022-09-23T07:02:17;98265.53;;;10.83;55.50
40285;BME280;25997;50.214;19.354;2022-09-23T07:05:20;98272.28;;;11.05;55.45
40285;BME280;25997;50.214;19.354;2022-09-23T07:08:23;98269.91;;;10.83;55.20
40285;BME280;25997;50.214;19.354;2022-09-23T07:11:28;98281.13;;;10.77;55.25
40285;BME280;25997;50.214;19.354;2022-09-23T07:14:31;98272.44;;;10.80;55.67
40285;BME280;25997;50.214;19.354;2022-09-23T07:17:33;98276.78;;;11.09;55.47
40285;BME280;25997;50.214;19.354;2022-09-23T07:20:36;98274.66;;;11.25;55.32
40285;BME280;25997;50.214;19.354;2022-09-23T07:23:39;98276.03;;;11.44;55.21
40285;BME280;25997;50.214;19.354;2022-09-23T07:26:43;98276.69;;;11.70;54.98
40285;BME280;25997;50.214;19.354;2022-09-23T07:29:47;98289.44;;;11.89;54.37
40285;BME280;25997;50.214;19.354;2022-09-23T07:32:50;98290.69;;;12.04;54.63
40285;BME280;25997;50.214;19.354;2022-09-23T07:35:53;98284.97;;;12.19;54.58
40285;BME280;25997;50.214;19.354;2022-09-23T07:38:55;98288.59;;;12.24;54.34
40285;BME280;25997;50.214;19.354;2022-09-23T07:42:04;98287.75;;;12.27;54.45
40285;BME280;25997;50.214;19.354;2022-09-23T07:45:08;98293.91;;;12.27;54.12
40285;BME280;25997;50.214;19.354;2022-09-23T07:48:10;98295.66;;;12.27;54.18
40285;BME280;25997;50.214;19.354;2022-09-23T07:51:17;98297.47;;;12.29;54.37
40285;BME280;25997;50.214;19.354;2022-09-23T07:54:20;98284.97;;;12.19;53.87
40285;BME280;25997;50.214;19.354;2022-09-23T07:57:26;98288.84;;;12.35;54.22
40285;BME280;25997;50.214;19.354;2022-09-23T08:00:29;98284.53;;;12.78;53.62
40285;BME280;25997;50.214;19.354;2022-09-23T08:03:33;98291.44;;;13.12;53.48
40285;BME280;25997;50.214;19.354;2022-09-23T08:06:39;98300.84;;;13.44;52.88
40285;BME280;25997;50.214;19.354;2022-09-23T08:09:42;98296.44;;;13.43;52.67
40285;BME280;25997;50.214;19.354;2022-09-23T08:12:47;98298.34;;;13.50;52.00
40285;BME280;25997;50.214;19.354;2022-09-23T08:15:50;98299.44;;;13.18;51.98
40285;BME280;25997;50.214;19.354;2022-09-23T08:18:52;98290.28;;;13.01;52.13
40285;BME280;25997;50.214;19.354;2022-09-23T08:21:55;98294.34;;;12.84;52.19
40285;BME280;25997;50.214;19.354;2022-09-23T08:24:58;98280.88;;;12.70;52.23
40285;BME280;25997;50.214;19.354;2022-09-23T08:28:02;98289.75;;;12.75;52.44
40285;BME280;25997;50.214;19.354;2022-09-23T08:31:05;98293.56;;;12.89;52.22
40285;BME280;25997;50.214;19.354;2022-09-23T08:34:09;98286.53;;;13.32;52.08
40285;BME280;25997;50.214;19.354;2022-09-23T08:37:11;98280.63;;;13.94;51.44
40285;BME280;25997;50.214;19.354;2022-09-23T08:40:14;98272.50;;;14.36;49.99
40285;BME280;25997;50.214;19.354;2022-09-23T08:43:24;98275.75;;;14.78;49.21
40285;BME280;25997;50.214;19.354;2022-09-23T08:46:32;98280.13;;;14.75;49.15
40285;BME280;25997;50.214;19.354;2022-09-23T08:49:49;98272.66;;;14.47;49.15
40285;BME280;25997;50.214;19.354;2022-09-23T08:52:57;98270.47;;;14.17;49.85
40285;BME280;25997;50.214;19.354;2022-09-23T08:56:03;98269.50;;;14.12;49.85
40285;BME280;25997;50.214;19.354;2022-09-23T08:59:13;98273.31;;;14.30;49.92
40285;BME280;25997;50.214;19.354;2022-09-23T09:02:21;98279.72;;;14.48;49.81
40285;BME280;25997;50.214;19.354;2022-09-23T09:05:25;98275.16;;;14.99;48.97
40285;BME280;25997;50.214;19.354;2022-09-23T09:08:32;98271.06;;;15.25;48.85
40285;BME280;25997;50.214;19.354;2022-09-23T09:11:39;98266.06;;;15.52;48.83
40285;BME280;25997;50.214;19.354;2022-09-23T09:14:53;98268.75;;;15.55;48.21
40285;BME280;25997;50.214;19.354;2022-09-23T09:18:03;98262.53;;;15.52;48.46
40285;BME280;25997;50.214;19.354;2022-09-23T09:21:10;98271.31;;;15.48;48.10
40285;BME280;25997;50.214;19.354;2022-09-23T09:24:18;98267.19;;;15.75;47.95
40285;BME280;25997;50.214;19.354;2022-09-23T09:27:23;98260.53;;;16.20;46.84
40285;BME280;25997;50.214;19.354;2022-09-23T09:30:29;98272.91;;;16.25;46.52
40285;BME280;25997;50.214;19.354;2022-09-23T09:33:37;98259.44;;;15.95;46.38
40285;BME280;25997;50.214;19.354;2022-09-23T09:36:45;98260.91;;;15.64;46.90
40285;BME280;25997;50.214;19.354;2022-09-23T09:39:51;98262.75;;;15.68;46.69
40285;BME280;25997;50.214;19.354;2022-09-23T09:42:54;98260.38;;;16.03;45.63
40285;BME280;25997;50.214;19.354;2022-09-23T09:46:05;98254.41;;;16.28;44.78
40285;BME280;25997;50.214;19.354;2022-09-23T09:49:21;98253.41;;;16.16;44.32
40285;BME280;25997;50.214;19.354;2022-09-23T09:52:27;98247.19;;;16.14;44.67
40285;BME280;25997;50.214;19.354;2022-09-23T09:55:30;98235.09;;;16.49;44.25
40285;BME280;25997;50.214;19.354;2022-09-23T09:58:37;98238.91;;;17.11;44.59
40285;BME280;25997;50.214;19.354;2022-09-23T10:01:45;98230.22;;;17.85;43.99
40285;BME280;25997;50.214;19.354;2022-09-23T10:04:55;98230.25;;;18.24;42.81
40285;BME280;25997;50.214;19.354;2022-09-23T10:08:19;98228.41;;;18.69;41.89
40285;BME280;25997;50.214;19.354;2022-09-23T10:11:22;98235.34;;;19.09;42.63
40285;BME280;25997;50.214;19.354;2022-09-23T10:14:25;98230.94;;;19.02;41.43
40285;BME280;25997;50.214;19.354;2022-09-23T10:17:32;98222.78;;;19.30;40.72
40285;BME280;25997;50.214;19.354;2022-09-23T10:20:35;98216.50;;;19.48;41.12
40285;BME280;25997;50.214;19.354;2022-09-23T10:23:41;98216.84;;;20.20;40.67
40285;BME280;25997;50.214;19.354;2022-09-23T10:26:51;98220.50;;;20.92;37.92
40285;BME280;25997;50.214;19.354;2022-09-23T10:29:57;98221.72;;;21.36;38.95
40285;BME280;25997;50.214;19.354;2022-09-23T10:33:01;98219.78;;;21.47;37.50
40285;BME280;25997;50.214;19.354;2022-09-23T10:36:08;98219.69;;;20.87;37.63
40285;BME280;25997;50.214;19.354;2022-09-23T10:39:11;98212.38;;;20.22;37.92
40285;BME280;25997;50.214;19.354;2022-09-23T10:42:40;98219.25;;;19.28;36.73
40285;BME280;25997;50.214;19.354;2022-09-23T10:46:08;98206.16;;;18.80;38.41
40285;BME280;25997;50.214;19.354;2022-09-23T10:53:05;98205.47;;;18.00;38.42
40285;BME280;25997;50.214;19.354;2022-09-23T10:56:20;98202.78;;;17.75;38.36
40285;BME280;25997;50.214;19.354;2022-09-23T10:59:46;98202.75;;;17.39;38.28
40285;BME280;25997;50.214;19.354;2022-09-23T11:03:10;98198.28;;;17.25;38.54
40285;BME280;25997;50.214;19.354;2022-09-23T11:06:28;98199.25;;;18.05;38.47
40285;BME280;25997;50.214;19.354;2022-09-23T11:09:44;98192.59;;;19.33;37.25
40285;BME280;25997;50.214;19.354;2022-09-23T11:12:57;98190.19;;;20.17;35.57
40285;BME280;25997;50.214;19.354;2022-09-23T11:16:12;98185.38;;;20.52;34.15
40285;BME280;25997;50.214;19.354;2022-09-23T11:19:31;98186.25;;;21.22;34.42
40285;BME280;25997;50.214;19.354;2022-09-23T11:23:00;98180.84;;;21.27;32.43
40285;BME280;25997;50.214;19.354;2022-09-23T11:26:16;98180.06;;;21.80;32.30
40285;BME280;25997;50.214;19.354;2022-09-23T11:29:36;98175.53;;;22.35;31.40
40285;BME280;25997;50.214;19.354;2022-09-23T11:33:05;98169.75;;;22.58;30.17
40285;BME280;25997;50.214;19.354;2022-09-23T11:36:21;98169.91;;;22.95;31.81
40285;BME280;25997;50.214;19.354;2022-09-23T11:39:31;98158.63;;;23.20;31.96
40285;BME280;25997;50.214;19.354;2022-09-23T11:42:40;98156.25;;;23.46;31.65
40285;BME280;25997;50.214;19.354;2022-09-23T11:45:52;98161.28;;;23.22;30.11
40285;BME280;25997;50.214;19.354;2022-09-23T11:49:03;98164.44;;;22.99;27.97
40285;BME280;25997;50.214;19.354;2022-09-23T11:52:11;98166.13;;;22.14;27.75
40285;BME280;25997;50.214;19.354;2022-09-23T11:55:24;98157.75;;;22.33;29.16
40285;BME280;25997;50.214;19.354;2022-09-23T11:58:32;98159.69;;;22.70;29.62
40285;BME280;25997;50.214;19.354;2022-09-23T12:01:44;98155.06;;;22.33;29.79
40285;BME280;25997;50.214;19.354;2022-09-23T12:04:54;98155.22;;;22.25;28.76
40285;BME280;25997;50.214;19.354;2022-09-23T12:08:05;98143.34;;;22.82;29.83
40285;BME280;25997;50.214;19.354;2022-09-23T12:11:22;98140.72;;;22.81;28.12
40285;BME280;25997;50.214;19.354;2022-09-23T12:14:32;98132.84;;;23.15;27.83
40285;BME280;25997;50.214;19.354;2022-09-23T12:18:02;98132.06;;;23.85;26.67
40285;BME280;25997;50.214;19.354;2022-09-23T12:25:19;98131.81;;;23.94;27.02
40285;BME280;25997;50.214;19.354;2022-09-23T12:28:33;98128.25;;;22.80;29.53
40285;BME280;25997;50.214;19.354;2022-09-23T12:31:38;98132.31;;;22.09;30.11
40285;BME280;25997;50.214;19.354;2022-09-23T12:34:42;98120.44;;;21.18;30.61
40285;BME280;25997;50.214;19.354;2022-09-23T12:37:49;98114.44;;;20.33;30.91
40285;BME280;25997;50.214;19.354;2022-09-23T12:40:53;98115.09;;;19.65;31.45
40285;BME280;25997;50.214;19.354;2022-09-23T12:44:11;98109.28;;;19.13;31.52
40285;BME280;25997;50.214;19.354;2022-09-23T12:47:37;98102.44;;;18.74;30.35
40285;BME280;25997;50.214;19.354;2022-09-23T12:50:51;98097.25;;;18.36;31.64
40285;BME280;25997;50.214;19.354;2022-09-23T12:54:14;98091.09;;;18.30;32.46
40285;BME280;25997;50.214;19.354;2022-09-23T12:57:39;98095.63;;;19.58;31.98
40285;BME280;25997;50.214;19.354;2022-09-23T13:01:06;98095.69;;;21.06;30.35
40285;BME280;25997;50.214;19.354;2022-09-23T13:08:04;98093.84;;;23.02;28.86
40285;BME280;25997;50.214;19.354;2022-09-23T13:11:16;98089.19;;;23.48;27.10
40285;BME280;25997;50.214;19.354;2022-09-23T13:14:22;98085.69;;;24.46;28.13
40285;BME280;25997;50.214;19.354;2022-09-23T13:17:31;98089.03;;;24.21;26.19
40285;BME280;25997;50.214;19.354;2022-09-23T13:20:36;98086.00;;;23.32;27.53
40285;BME280;25997;50.214;19.354;2022-09-23T13:24:16;98076.47;;;23.19;25.88
40285;BME280;25997;50.214;19.354;2022-09-23T13:27:26;98071.66;;;22.55;26.64
40285;BME280;25997;50.214;19.354;2022-09-23T13:30:29;98067.69;;;22.30;28.29
40285;BME280;25997;50.214;19.354;2022-09-23T13:33:38;98070.34;;;22.32;27.63
40285;BME280;25997;50.214;19.354;2022-09-23T13:36:44;98059.16;;;22.11;27.82
40285;BME280;25997;50.214;19.354;2022-09-23T13:39:47;98062.16;;;22.39;28.29
40285;BME280;25997;50.214;19.354;2022-09-23T13:42:54;98053.28;;;23.18;27.07
40285;BME280;25997;50.214;19.354;2022-09-23T13:46:00;98053.53;;;23.78;27.32
40285;BME280;25997;50.214;19.354;2022-09-23T13:49:04;98050.78;;;23.81;26.98
40285;BME280;25997;50.214;19.354;2022-09-23T13:52:21;98047.66;;;23.62;25.74
40285;BME280;25997;50.214;19.354;2022-09-23T13:55:27;98050.56;;;23.20;27.02
40285;BME280;25997;50.214;19.354;2022-09-23T13:58:33;98040.81;;;23.52;27.22
40285;BME280;25997;50.214;19.354;2022-09-23T14:01:35;98035.81;;;23.01;26.66
40285;BME280;25997;50.214;19.354;2022-09-23T14:04:40;98034.00;;;22.22;27.46
40285;BME280;25997;50.214;19.354;2022-09-23T14:07:43;98034.38;;;21.55;28.47
40285;BME280;25997;50.214;19.354;2022-09-23T14:10:46;98029.91;;;21.02;29.04
40285;BME280;25997;50.214;19.354;2022-09-23T14:13:50;98020.06;;;20.44;29.49
40285;BME280;25997;50.214;19.354;2022-09-23T14:16:54;98027.78;;;19.92;29.81
40285;BME280;25997;50.214;19.354;2022-09-23T14:19:59;98015.81;;;19.51;30.84
40285;BME280;25997;50.214;19.354;2022-09-23T14:23:03;98015.19;;;19.20;31.79
40285;BME280;25997;50.214;19.354;2022-09-23T14:26:06;98015.34;;;18.96;31.28
40285;BME280;25997;50.214;19.354;2022-09-23T14:29:12;98017.28;;;18.74;32.34
40285;BME280;25997;50.214;19.354;2022-09-23T14:32:18;98011.25;;;18.43;32.04
40285;BME280;25997;50.214;19.354;2022-09-23T14:35:26;98016.75;;;18.09;32.39
40285;BME280;25997;50.214;19.354;2022-09-23T14:38:39;98004.44;;;17.77;33.18
40285;BME280;25997;50.214;19.354;2022-09-23T14:41:52;98015.13;;;17.53;33.06
40285;BME280;25997;50.214;19.354;2022-09-23T14:44:55;98012.47;;;17.34;33.90
40285;BME280;25997;50.214;19.354;2022-09-23T14:48:00;98008.94;;;17.15;33.80
40285;BME280;25997;50.214;19.354;2022-09-23T14:51:08;98005.44;;;17.24;34.11
40285;BME280;25997;50.214;19.354;2022-09-23T14:54:31;98005.22;;;18.13;33.80
40285;BME280;25997;50.214;19.354;2022-09-23T14:57:36;98008.06;;;19.22;33.09
40285;BME280;25997;50.214;19.354;2022-09-23T15:00:50;98007.69;;;20.36;32.23
40285;BME280;25997;50.214;19.354;2022-09-23T15:03:54;98014.28;;;21.29;31.35
40285;BME280;25997;50.214;19.354;2022-09-23T15:07:03;98009.41;;;22.03;29.82
40285;BME280;25997;50.214;19.354;2022-09-23T15:10:06;98014.50;;;22.56;27.78
40285;BME280;25997;50.214;19.354;2022-09-23T15:13:14;98018.16;;;22.92;29.96
40285;BME280;25997;50.214;19.354;2022-09-23T15:16:23;98009.53;;;23.18;28.02
40285;BME280;25997;50.214;19.354;2022-09-23T15:19:27;98011.91;;;23.63;28.20
40285;BME280;25997;50.214;19.354;2022-09-23T15:22:41;98007.34;;;24.61;25.77
40285;BME280;25997;50.214;19.354;2022-09-23T15:25:50;98010.56;;;24.72;26.27
40285;BME280;25997;50.214;19.354;2022-09-23T15:28:55;98006.09;;;24.12;26.63
40285;BME280;25997;50.214;19.354;2022-09-23T15:31:58;97999.22;;;23.36;27.27
40285;BME280;25997;50.214;19.354;2022-09-23T15:35:01;98003.19;;;23.22;27.56
40285;BME280;25997;50.214;19.354;2022-09-23T15:38:07;97997.72;;;23.26;27.64
40285;BME280;25997;50.214;19.354;2022-09-23T15:41:10;97997.06;;;23.15;27.06
40285;BME280;25997;50.214;19.354;2022-09-23T15:44:16;97986.63;;;23.03;27.78
40285;BME280;25997;50.214;19.354;2022-09-23T15:47:20;97989.53;;;22.94;28.47
40285;BME280;25997;50.214;19.354;2022-09-23T15:50:23;97996.75;;;23.27;27.80
40285;BME280;25997;50.214;19.354;2022-09-23T15:53:27;97997.34;;;23.03;27.62
40285;BME280;25997;50.214;19.354;2022-09-23T15:56:29;97989.06;;;22.77;28.38
40285;BME280;25997;50.214;19.354;2022-09-23T15:59:32;97991.34;;;22.55;28.52
40285;BME280;25997;50.214;19.354;2022-09-23T16:02:35;97994.78;;;22.62;27.83
40285;BME280;25997;50.214;19.354;2022-09-23T16:05:39;97994.06;;;22.52;27.83
40285;BME280;25997;50.214;19.354;2022-09-23T16:08:45;97992.28;;;22.53;27.88
40285;BME280;25997;50.214;19.354;2022-09-23T16:11:48;97992.44;;;22.04;27.74
40285;BME280;25997;50.214;19.354;2022-09-23T16:14:52;97997.31;;;21.35;28.28
40285;BME280;25997;50.214;19.354;2022-09-23T16:17:55;97988.75;;;20.55;29.40
40285;BME280;25997;50.214;19.354;2022-09-23T16:20:58;97993.34;;;19.71;29.86
40285;BME280;25997;50.214;19.354;2022-09-23T16:24:02;97989.53;;;19.07;30.90
40285;BME280;25997;50.214;19.354;2022-09-23T16:27:05;97996.09;;;18.56;31.80
40285;BME280;25997;50.214;19.354;2022-09-23T16:30:10;97983.09;;;18.08;32.26